Time;durP1;ratioP1;P1;durP2;ratioP2;P2;SDS_P1;SDS_P2;PMS_P1;PMS_P2;Temp;Humidity;BMP_temperature;BMP_pressure;BME280_temperature;BME280_humidity;BME280_pressure;Samples;Min_cycle;Max_cycle;Signal;HPM_P1;HPM_P2
2022/06/04 00:01:46;;;;;;;13.05;6.70;;;;;;;13.06;69.39;100808.44;4999482;28;20050;-45
2022/06/04 00:04:14;;;;;;;12.98;6.88;;;;;;;13.08;69.38;100798.91;5001976;28;20172;-43
2022/06/04 00:06:42;;;;;;;12.60;7.05;;;;;;;13.08;68.50;100798.91;5000754;28;20053;-43
2022/06/04 00:09:10;;;;;;;14.38;7.57;;;;;;;13.06;69.83;100801.50;5004167;28;20069;-42
2022/06/04 00:17:13;;;;;;;13.00;6.07;;;;;;;13.02;68.77;100799.78;5004322;28;20050;-46
2022/06/04 00:19:40;;;;;;;11.95;7.22;;;;;;;13.06;68.65;100801.50;5003543;28;20505;-41
2022/06/04 00:22:07;;;;;;;10.73;6.03;;;;;;;13.04;69.96;100808.44;5004659;28;20046;-41
2022/06/04 00:24:35;;;;;;;11.77;6.55;;;;;;;12.97;69.69;100810.19;4992452;28;20054;-42
2022/06/04 00:27:02;;;;;;;12.27;7.40;;;;;;;12.94;70.25;100817.13;4978899;28;20494;-46
2022/06/04 00:29:31;;;;;;;16.45;7.68;;;;;;;12.95;69.65;100818.84;4982353;28;20402;-43
2022/06/04 00:31:58;;;;;;;12.45;6.80;;;;;;;12.97;69.78;100815.38;4983540;28;20073;-42
2022/06/04 00:34:25;;;;;;;11.55;6.00;;;;;;;12.94;70.48;100806.72;4983222;28;20363;-43
2022/06/04 00:36:52;;;;;;;11.50;6.22;;;;;;;12.91;70.60;100811.91;4978972;28;20053;-45
2022/06/04 00:39:19;;;;;;;12.90;7.05;;;;;;;12.92;69.51;100808.44;4991239;28;20050;-44
2022/06/04 00:52:15;;;;;;;15.30;5.25;;;;;;;12.98;69.83;100803.25;5065380;27;21001;-43
2022/06/04 00:54:44;;;;;;;12.15;5.30;;;;;;;12.98;69.88;100818.84;5054058;28;20053;-44
2022/06/04 01:11:38;;;;;;;10.27;5.35;;;;;;;12.96;70.09;100825.78;5056469;27;20724;-42
2022/06/04 01:17:09;;;;;;;13.38;4.13;;;;;;;12.88;69.66;100812.78;5109752;27;20732;-42
2022/06/04 01:28:02;;;;;;;10.45;3.78;;;;;;;12.82;70.56;100803.25;5040229;27;20404;-43
2022/06/04 01:30:35;;;;;;;6.88;3.78;;;;;;;12.83;69.94;100810.19;5033178;28;20112;-42
2022/06/04 01:33:12;;;;;;;7.07;3.58;;;;;;;12.80;70.33;100810.19;5016845;28;20041;-41
2022/06/04 01:35:44;;;;;;;;;;;;;;;12.65;69.82;100808.44;5014977;28;20050;-42
2022/06/04 01:38:18;;;;;;;5.82;3.22;;;;;;;12.76;69.23;100813.63;5002876;28;19925;-46
2022/06/04 01:48:57;;;;;;;7.55;3.30;;;;;;;12.70;69.55;100818.84;5037263;27;20402;-41
2022/06/04 01:51:28;;;;;;;8.55;3.35;;;;;;;12.67;70.03;100819.69;5016653;28;20045;-44
2022/06/04 01:54:01;;;;;;;9.70;3.35;;;;;;;12.65;69.90;100821.44;5016993;28;20045;-43
2022/06/04 01:56:37;;;;;;;6.13;2.67;;;;;;;12.65;69.93;100820.56;5018321;28;20050;-42
2022/06/04 01:59:16;;;;;;;9.35;3.10;;;;;;;12.60;69.78;100818.81;5023213;28;20095;-43
2022/06/04 02:01:45;;;;;;;6.65;3.13;;;;;;;12.60;70.22;100813.63;5037148;28;20052;-42
2022/06/04 02:04:17;;;;;;;7.63;3.47;;;;;;;12.57;70.38;100813.63;5021878;28;20152;-41
2022/06/04 02:07:29;;;;;;;6.45;3.35;;;;;;;12.58;69.45;100807.59;5033516;28;20076;-44
2022/06/04 02:09:43;;;;;;;8.20;2.80;;;;;;;12.55;69.25;100807.56;5029326;28;20516;-44
2022/06/04 02:12:12;;;;;;;6.72;3.05;;;;;;;12.53;70.28;100805.84;5035317;28;20073;-42
2022/06/04 02:14:40;;;;;;;8.48;2.60;;;;;;;12.52;70.40;100804.97;5039332;28;20041;-41
2022/06/04 02:17:13;;;;;;;8.52;2.90;;;;;;;12.56;70.16;100804.09;5040938;28;20052;-41
2022/06/04 02:19:41;;;;;;;9.57;3.50;;;;;;;12.55;69.23;100809.28;5037666;28;20534;-41
2022/06/04 02:22:09;;;;;;;8.27;2.88;;;;;;;12.53;69.07;100813.63;5038777;28;20053;-41
2022/06/04 02:24:37;;;;;;;8.55;2.78;;;;;;;12.52;70.05;100812.75;5036675;28;20056;-44
2022/06/04 02:27:06;;;;;;;7.45;2.25;;;;;;;12.53;69.72;100817.09;5038793;28;20497;-43
2022/06/04 02:29:34;;;;;;;9.65;2.80;;;;;;;12.53;69.65;100821.44;5044171;28;20103;-44
2022/06/04 02:34:55;;;;;;;7.38;2.97;;;;;;;12.49;69.65;100804.94;5103670;27;20392;-43
2022/06/04 02:37:47;;;;;;;7.22;2.92;;;;;;;12.51;68.63;100829.22;5070466;28;20114;-41
2022/06/04 02:40:20;;;;;;;7.60;3.08;;;;;;;12.51;70.14;100817.94;5064990;28;20106;-47
2022/06/04 02:43:29;;;;;;;7.82;3.25;;;;;;;12.46;69.75;100815.34;5068327;28;20053;-47
2022/06/04 02:48:40;;;;;;;7.40;3.78;;;;;;;12.47;69.44;100806.69;5044199;27;20406;-43
2022/06/04 02:51:16;;;;;;;6.55;3.45;;;;;;;12.48;69.46;100808.44;5011191;28;20731;-46
2022/06/04 02:53:43;;;;;;;6.30;4.43;;;;;;;12.45;69.94;100809.28;5013163;28;20049;-46
2022/06/04 02:56:13;;;;;;;8.32;4.97;;;;;;;12.46;69.53;100811.00;5031658;28;20049;-45
2022/06/04 02:58:43;;;;;;;6.97;3.38;;;;;;;12.46;69.10;100807.53;5008048;28;20508;-42
2022/06/04 03:01:12;;;;;;;8.60;4.70;;;;;;;12.44;68.82;100814.47;4999373;28;20502;-42
2022/06/04 03:03:40;;;;;;;6.75;4.28;;;;;;;12.40;69.18;100805.78;5016749;28;20096;-45
2022/06/04 03:06:19;;;;;;;7.28;4.10;;;;;;;12.41;69.72;100804.97;5009183;28;20111;-45
2022/06/04 03:08:46;;;;;;;7.28;4.55;;;;;;;12.42;69.50;100804.09;5017326;28;20046;-45
2022/06/04 03:11:13;;;;;;;9.43;2.95;;;;;;;12.40;69.14;100816.19;5005871;28;20567;-46
2022/06/04 03:13:39;;;;;;;6.30;3.97;;;;;;;12.39;69.76;100803.22;5007720;28;20073;-43
2022/06/04 03:16:06;;;;;;;8.80;4.85;;;;;;;12.40;69.89;100802.34;5004179;28;20046;-45
2022/06/04 03:18:32;;;;;;;7.97;4.22;;;;;;;12.42;68.80;100805.81;5013505;28;20112;-44
2022/06/04 03:20:59;;;;;;;7.72;4.28;;;;;;;12.42;68.38;100803.19;5013040;28;20136;-45
2022/06/04 03:23:43;;;;;;;11.70;4.95;;;;;;;12.41;68.73;100806.69;5014282;28;20446;-43
2022/06/04 03:26:10;;;;;;;9.68;5.53;;;;;;;12.42;68.53;100813.59;5002395;28;20046;-45
2022/06/04 03:28:36;;;;;;;7.28;4.47;;;;;;;12.44;68.52;100809.28;5004177;28;20046;-44
2022/06/04 03:31:03;;;;;;;8.77;4.55;;;;;;;12.41;69.85;100804.06;5006669;28;20049;-43
2022/06/04 03:33:30;;;;;;;14.43;7.20;;;;;;;12.31;70.42;100809.25;5004996;28;20049;-46
2022/06/04 03:35:57;;;;;;;8.98;5.28;;;;;;;12.34;69.79;100811.00;5013917;28;20108;-44
2022/06/04 03:38:24;;;;;;;8.18;5.03;;;;;;;12.32;69.27;100795.41;5008199;28;20053;-45
2022/06/04 03:40:51;;;;;;;8.38;5.03;;;;;;;12.35;68.88;100797.13;5009188;28;20410;-45
2022/06/04 03:43:17;;;;;;;9.15;5.18;;;;;;;12.32;70.21;100813.59;5000643;28;20046;-41
2022/06/04 03:45:44;;;;;;;8.25;5.18;;;;;;;12.33;68.95;100804.94;5012875;28;20112;-43
2022/06/04 03:48:11;;;;;;;9.38;3.58;;;;;;;12.33;70.04;100815.31;5003340;28;20397;-43
2022/06/04 03:50:37;;;;;;;11.05;5.35;;;;;;;12.31;70.38;100813.59;5013848;28;20087;-42
2022/06/04 03:53:04;;;;;;;12.10;5.43;;;;;;;12.34;69.51;100817.03;5006181;28;20389;-43
2022/06/04 03:55:31;;;;;;;9.38;5.40;;;;;;;12.34;68.79;100819.63;5010768;28;20054;-43
2022/06/04 03:57:57;;;;;;;8.35;5.45;;;;;;;12.34;69.91;100822.22;5016784;28;20419;-42
2022/06/04 04:00:29;;;;;;;9.93;5.20;;;;;;;12.37;69.44;100826.59;4996510;28;20061;-40
2022/06/04 04:05:41;;;;;;;8.88;3.70;;;;;;;12.39;68.96;100805.81;5052475;27;21433;-42
2022/06/04 04:08:09;;;;;;;8.85;4.18;;;;;;;12.33;69.21;100820.50;5021496;28;20046;-43
2022/06/04 04:10:38;;;;;;;10.73;4.43;;;;;;;12.40;69.31;100820.53;5023055;28;20060;-42
2022/06/04 04:13:05;;;;;;;11.60;3.58;;;;;;;12.41;68.64;100823.16;5024449;28;20045;-44
2022/06/04 04:15:32;;;;;;;7.30;3.75;;;;;;;12.42;69.43;100824.00;5024497;28;20049;-44
2022/06/04 04:17:59;;;;;;;15.27;3.95;;;;;;;12.43;69.19;100824.00;5021746;28;20112;-45
2022/06/04 04:20:29;;;;;;;5.10;3.35;;;;;;;12.39;69.65;100830.06;5009672;28;20116;-40
2022/06/04 04:22:57;;;;;;;9.38;3.88;;;;;;;12.42;68.96;100826.59;5002783;28;20080;-45
2022/06/04 04:25:28;;;;;;;5.40;3.00;;;;;;;12.43;69.78;100836.13;5001601;28;20104;-42
2022/06/04 04:27:55;;;;;;;9.68;3.33;;;;;;;12.45;68.39;100831.78;5000325;28;20050;-42
2022/06/04 04:30:25;;;;;;;8.07;3.88;;;;;;;12.49;68.79;100830.94;5034218;28;20482;-42
2022/06/04 04:32:53;;;;;;;10.50;3.42;;;;;;;12.47;69.70;100827.47;5032731;28;20481;-43
2022/06/04 04:35:24;;;;;;;7.95;3.33;;;;;;;12.48;68.66;100829.22;5002837;28;20100;-42
2022/06/04 04:37:52;;;;;;;7.28;3.30;;;;;;;12.46;69.26;100825.72;5002629;28;20058;-45
2022/06/04 04:40:21;;;;;;;6.72;3.60;;;;;;;12.49;69.60;100820.53;5001721;28;20053;-41
2022/06/04 04:42:48;;;;;;;7.60;3.63;;;;;;;12.49;68.83;100824.91;5033928;28;20117;-43
2022/06/04 04:45:17;;;;;;;5.18;3.03;;;;;;;12.42;69.99;100829.19;5002874;28;20050;-42
2022/06/04 04:47:45;;;;;;;7.80;3.65;;;;;;;12.48;69.12;100824.00;5002771;28;20054;-46
2022/06/04 04:50:18;;;;;;;12.88;3.88;;;;;;;12.49;69.22;100815.34;5002572;28;20058;-43
2022/06/04 04:52:46;;;;;;;6.57;2.85;;;;;;;12.42;69.78;100811.88;5001563;28;20395;-43
2022/06/04 04:55:13;;;;;;;7.32;3.00;;;;;;;12.49;68.68;100810.16;5016517;28;20046;-42
2022/06/04 04:57:40;;;;;;;7.93;3.55;;;;;;;12.48;69.91;100821.41;5005212;28;20054;-43
2022/06/04 05:00:08;;;;;;;10.25;3.63;;;;;;;12.45;69.18;100819.69;5000277;28;20419;-46
2022/06/04 05:02:35;;;;;;;11.82;3.78;;;;;;;12.47;68.59;100827.47;5001107;28;20057;-41
2022/06/04 05:05:02;;;;;;;18.88;4.20;;;;;;;12.48;70.09;100818.81;4996280;28;20129;-46
2022/06/04 05:07:29;;;;;;;8.30;3.08;;;;;;;12.43;68.96;100825.75;5001921;28;20541;-43
2022/06/04 05:09:55;;;;;;;5.40;2.97;;;;;;;12.43;70.08;100826.59;4999791;28;20430;-44
2022/06/04 05:12:22;;;;;;;9.73;3.80;;;;;;;12.42;69.75;100824.88;5005032;28;20057;-44
2022/06/04 05:14:49;;;;;;;7.75;3.33;;;;;;;12.44;69.29;100837.88;4997705;28;20502;-44
2022/06/04 05:17:16;;;;;;;6.38;3.13;;;;;;;12.41;69.88;100837.84;5018890;28;20050;-42
2022/06/04 05:19:46;;;;;;;7.47;3.55;;;;;;;12.50;69.76;100843.06;4991011;28;20502;-44
2022/06/04 05:22:13;;;;;;;8.07;3.17;;;;;;;12.57;69.02;100859.53;4987521;28;20046;-43
2022/06/04 05:24:40;;;;;;;7.03;2.97;;;;;;;12.64;69.00;100850.03;4989501;28;20077;-45
2022/06/04 05:27:07;;;;;;;11.35;3.45;;;;;;;12.66;69.76;100849.16;4989864;28;20050;-41
2022/06/04 05:29:34;;;;;;;9.88;3.50;;;;;;;12.64;69.59;100845.72;4990375;28;20073;-44
2022/06/04 05:32:02;;;;;;;6.47;2.58;;;;;;;12.65;68.76;100859.53;4986697;28;20050;-45
2022/06/04 05:34:47;;;;;;;5.90;2.90;;;;;;;12.66;68.70;100861.31;4989593;28;20084;-44
2022/06/04 05:37:14;;;;;;;7.47;2.75;;;;;;;12.70;69.27;100871.69;4987096;28;20042;-43
2022/06/04 05:39:40;;;;;;;8.10;2.80;;;;;;;12.76;69.09;100875.19;4985832;28;20050;-44
2022/06/04 05:42:07;;;;;;;8.93;3.67;;;;;;;12.74;69.57;100872.56;4988288;28;20462;-43
2022/06/04 05:44:34;;;;;;;8.75;2.83;;;;;;;12.77;68.62;100877.75;4987748;28;20061;-41
2022/06/04 05:47:00;;;;;;;6.93;2.65;;;;;;;12.86;67.86;100866.50;4984638;28;20062;-41
2022/06/04 05:49:27;;;;;;;5.45;2.75;;;;;;;12.94;68.72;100874.31;4992748;28;20058;-43
2022/06/04 05:51:54;;;;;;;6.53;2.63;;;;;;;12.98;68.29;100866.50;4979560;28;20043;-43
2022/06/04 05:54:20;;;;;;;9.80;2.92;;;;;;;13.06;68.30;100869.13;4984038;28;20079;-44
2022/06/04 05:56:49;;;;;;;7.63;2.50;;;;;;;13.10;67.78;100864.78;4978208;28;20112;-43
2022/06/04 05:59:22;;;;;;;10.57;3.05;;;;;;;13.15;67.96;100872.59;4989065;28;20054;-44
2022/06/04 06:01:49;;;;;;;6.18;3.00;;;;;;;13.22;68.55;100872.59;4985289;28;20108;-43
2022/06/04 06:04:18;;;;;;;5.20;3.08;;;;;;;13.29;68.45;100881.25;4988047;28;20038;-42
2022/06/04 06:06:50;;;;;;;7.93;2.90;;;;;;;13.36;67.62;100859.56;4985571;28;20050;-41
2022/06/04 06:09:20;;;;;;;7.30;2.78;;;;;;;13.45;68.28;100873.44;5017596;28;20582;-42
2022/06/04 06:11:48;;;;;;;5.32;2.33;;;;;;;13.45;66.70;100869.09;4989638;28;20058;-46
2022/06/04 06:14:16;;;;;;;5.93;2.63;;;;;;;13.47;67.64;100874.28;4986824;28;20049;-43
2022/06/04 06:16:45;;;;;;;4.68;1.83;;;;;;;13.42;67.44;100870.84;4990843;28;20050;-43
2022/06/04 06:19:13;;;;;;;6.32;2.60;;;;;;;13.45;66.76;100873.44;5000577;28;20051;-43
2022/06/04 06:21:41;;;;;;;6.88;2.88;;;;;;;13.45;66.82;100870.84;4989046;28;20050;-42
2022/06/04 06:24:10;;;;;;;5.78;2.47;;;;;;;13.49;67.29;100867.41;4983233;28;20046;-43
2022/06/04 06:26:57;;;;;;;8.57;2.40;;;;;;;13.55;66.89;100866.50;4985741;28;20057;-43
2022/06/04 06:29:30;;;;;;;7.82;2.13;;;;;;;13.82;66.68;100859.50;4982657;28;20133;-44
2022/06/04 06:32:00;;;;;;;4.10;2.00;;;;;;;13.96;66.74;100867.28;5015950;28;20050;-45
2022/06/04 06:34:27;;;;;;;7.38;2.63;;;;;;;14.07;66.41;100860.28;4988232;28;20467;-44
2022/06/04 06:36:55;;;;;;;4.53;2.13;;;;;;;14.06;64.89;100868.97;4986793;28;20046;-42
2022/06/04 06:39:22;;;;;;;7.28;2.05;;;;;;;14.06;64.78;100853.34;4986734;28;20454;-43
2022/06/04 06:41:49;;;;;;;6.18;1.75;;;;;;;14.02;65.52;100856.84;4985031;28;20615;-41
2022/06/04 06:44:15;;;;;;;8.25;2.78;;;;;;;14.16;65.03;100859.38;4989722;28;20050;-41
2022/06/04 06:46:45;;;;;;;6.38;2.13;;;;;;;14.45;65.37;100860.09;4985654;28;20066;-42
2022/06/04 06:49:17;;;;;;;7.40;2.92;;;;;;;14.57;64.74;100859.16;4986117;28;20486;-44
2022/06/04 06:51:49;;;;;;;6.28;1.70;;;;;;;14.72;64.67;100839.91;4985589;28;20494;-43
2022/06/04 06:54:19;;;;;;;10.48;2.47;;;;;;;14.79;63.75;100854.69;5014236;28;20042;-42
2022/06/04 06:56:47;;;;;;;6.07;2.05;;;;;;;14.84;63.19;100852.03;5016126;28;20047;-43
2022/06/04 06:59:14;;;;;;;4.28;2.38;;;;;;;14.86;63.04;100856.38;4987027;28;20050;-43
2022/06/04 07:01:42;;;;;;;5.82;1.77;;;;;;;14.94;62.72;100873.69;4983179;28;20105;-42
2022/06/04 07:04:09;;;;;;;7.20;1.92;;;;;;;14.95;62.02;100862.38;4986340;28;20057;-43
2022/06/04 07:06:42;;;;;;;6.38;2.20;;;;;;;15.04;62.40;100870.16;5017175;28;20692;-41
2022/06/04 07:09:15;;;;;;;4.03;2.38;;;;;;;15.00;61.65;100853.66;4985912;28;20042;-43
2022/06/04 07:11:43;;;;;;;4.68;1.63;;;;;;;14.88;61.63;100857.22;4985186;28;20061;-44
2022/06/04 07:14:10;;;;;;;5.00;1.83;;;;;;;14.87;60.81;100862.47;4988184;28;20069;-44
2022/06/04 07:16:38;;;;;;;5.80;2.17;;;;;;;14.85;61.91;100849.44;4984777;28;20053;-44
2022/06/04 07:19:05;;;;;;;5.05;1.50;;;;;;;14.85;61.18;100869.41;4963491;28;20073;-44
2022/06/04 07:21:32;;;;;;;5.78;1.75;;;;;;;14.81;61.61;100854.66;4977225;28;20042;-44
2022/06/04 07:24:00;;;;;;;6.22;2.13;;;;;;;14.80;61.86;100866.84;4978859;28;20046;-42
2022/06/04 07:26:27;;;;;;;4.38;1.90;;;;;;;14.75;62.02;100859.03;4980775;28;20065;-45
2022/06/04 07:28:54;;;;;;;7.72;1.85;;;;;;;14.73;61.86;100865.13;4979184;28;20049;-42
2022/06/04 07:31:22;;;;;;;11.20;2.35;;;;;;;14.67;62.42;100865.16;4979889;28;20050;-44
2022/06/04 07:33:52;;;;;;;5.47;2.08;;;;;;;14.63;61.90;100875.59;5010745;28;20073;-45
2022/06/04 07:36:23;;;;;;;5.22;1.60;;;;;;;14.62;62.03;100866.06;5008328;28;20126;-43
2022/06/04 07:38:50;;;;;;;3.75;1.70;;;;;;;14.64;62.36;100872.16;5011205;28;20053;-45
2022/06/04 07:41:20;;;;;;;5.57;1.85;;;;;;;14.60;61.81;100865.22;4982763;28;20470;-46
2022/06/04 07:43:48;;;;;;;7.82;1.95;;;;;;;14.51;61.43;100862.66;4983828;28;20042;-44
2022/06/04 07:46:15;;;;;;;4.28;2.20;;;;;;;14.53;62.01;100871.34;4974981;28;20042;-44
2022/06/04 07:48:42;;;;;;;5.45;1.90;;;;;;;14.45;62.26;100862.72;4978097;28;20051;-42
2022/06/04 07:51:10;;;;;;;6.57;1.60;;;;;;;14.38;62.19;100865.34;4977186;28;20105;-45
2022/06/04 07:53:37;;;;;;;5.95;2.20;;;;;;;14.37;62.22;100866.22;4963774;28;20097;-45
2022/06/04 07:56:06;;;;;;;7.00;1.92;;;;;;;14.35;62.45;100859.25;4974110;28;20081;-43
2022/06/04 07:58:33;;;;;;;2.28;1.65;;;;;;;14.32;62.34;100854.94;5010122;28;20054;-43
2022/06/04 08:00:59;;;;;;;6.38;2.13;;;;;;;14.29;63.03;100865.41;4972768;28;20081;-47
2022/06/04 08:03:26;;;;;;;5.18;2.00;;;;;;;14.23;62.52;100855.88;4980054;28;20054;-43
2022/06/04 08:05:53;;;;;;;4.03;1.60;;;;;;;14.18;62.55;100861.97;4969459;28;20066;-42
2022/06/04 08:08:20;;;;;;;4.70;1.95;;;;;;;14.13;63.03;100870.69;4971062;28;20059;-46
2022/06/04 08:10:48;;;;;;;4.78;1.85;;;;;;;14.13;62.60;100870.69;4977249;28;20054;-43
2022/06/04 08:13:24;;;;;;;3.80;2.28;;;;;;;14.12;62.82;100884.56;4978468;28;20078;-44
2022/06/04 08:15:58;;;;;;;4.38;1.95;;;;;;;14.13;63.11;100890.66;4982339;28;20782;-41
2022/06/04 08:18:25;;;;;;;6.25;2.63;;;;;;;14.10;62.67;100891.53;5011098;28;20054;-43
2022/06/04 08:20:53;;;;;;;5.75;1.40;;;;;;;14.08;62.66;100889.81;4979495;28;20410;-42
2022/06/04 08:23:20;;;;;;;5.50;2.33;;;;;;;14.07;62.81;100901.97;4977482;28;20722;-44
2022/06/04 08:25:48;;;;;;;6.15;2.60;;;;;;;14.00;63.16;100900.25;4979736;28;20046;-43
2022/06/04 08:28:15;;;;;;;3.55;1.70;;;;;;;14.04;62.09;100901.97;5009875;28;20054;-47
2022/06/04 08:30:44;;;;;;;4.90;1.92;;;;;;;14.10;62.28;100885.44;4982466;28;20054;-42
2022/06/04 08:33:11;;;;;;;4.03;1.92;;;;;;;14.11;62.40;100903.69;4980027;28;20556;-43
2022/06/04 08:35:38;;;;;;;3.20;1.80;;;;;;;14.03;62.72;100896.75;4981972;28;20514;-44
2022/06/04 08:38:05;;;;;;;4.55;1.60;;;;;;;14.04;62.23;100894.16;5009413;28;20059;-41
2022/06/04 08:48:28;;;;;;;6.95;2.20;;;;;;;14.19;62.64;100900.19;5111926;27;20394;-41
2022/06/04 08:50:55;;;;;;;9.32;3.42;;;;;;;14.24;62.12;100903.63;5043192;28;20405;-46
2022/06/04 08:53:25;;;;;;;4.38;2.10;;;;;;;14.22;62.02;100905.38;5041869;28;20045;-42
2022/06/04 09:09:34;;;;;;;6.68;3.08;;;;;;;14.48;61.67;100901.75;5056447;27;20398;-42
2022/06/04 09:12:15;;;;;;;5.32;3.17;;;;;;;14.46;62.06;100906.97;5002935;28;20532;-44
2022/06/04 09:17:33;;;;;;;5.30;2.20;;;;;;;14.61;61.69;100913.00;5005197;28;20422;-42
2022/06/04 09:20:01;;;;;;;4.80;2.05;;;;;;;14.68;61.90;100919.03;5003117;28;20092;-42
2022/06/04 09:22:38;;;;;;;3.97;1.95;;;;;;;14.77;61.96;100919.03;4998334;28;20442;-43
2022/06/04 09:25:06;;;;;;;6.45;2.53;;;;;;;14.80;60.87;100908.59;5000560;28;20049;-42
2022/06/04 09:35:31;;;;;;;6.32;2.17;;;;;;;15.33;60.70;100886.44;5005417;27;20894;-43
2022/06/04 09:37:59;;;;;;;5.47;1.73;;;;;;;15.45;60.04;100877.63;5001764;28;20437;-42
2022/06/04 09:40:30;;;;;;;4.32;2.05;;;;;;;15.61;60.07;100867.88;4991197;28;20061;-41
2022/06/04 09:43:15;;;;;;;3.70;1.88;;;;;;;15.57;58.98;100874.88;4993874;28;20061;-41
2022/06/04 09:46:04;;;;;;;7.15;1.80;;;;;;;15.55;59.06;100887.09;5008843;28;20046;-44
2022/06/04 09:48:35;;;;;;;5.25;1.58;;;;;;;15.54;59.23;100890.59;5011060;28;20125;-45
2022/06/04 09:51:06;;;;;;;3.72;1.80;;;;;;;15.57;58.97;100906.19;4997960;28;20046;-43
2022/06/04 09:53:41;;;;;;;4.88;2.67;;;;;;;15.54;58.93;100916.69;4995720;28;20054;-46
2022/06/04 09:56:13;;;;;;;6.20;2.30;;;;;;;15.54;59.26;100911.47;4994206;28;20064;-43
2022/06/04 09:58:44;;;;;;;2.75;1.95;;;;;;;15.49;58.30;100908.91;4996769;28;20129;-45
2022/06/04 10:04:03;;;;;;;5.65;1.98;;;;;;;15.72;58.50;100914.78;5030373;28;20407;-43
2022/06/04 10:06:36;;;;;;;7.82;2.20;;;;;;;15.67;58.61;100905.25;4992380;28;20627;-43
2022/06/04 10:12:03;;;;;;;4.93;2.13;;;;;;;15.76;58.42;100908.63;4991771;28;20043;-47
2022/06/04 10:14:39;;;;;;;5.57;2.35;;;;;;;15.78;58.91;100907.72;4992469;28;20053;-44
2022/06/04 10:17:27;;;;;;;4.80;2.10;;;;;;;15.89;58.68;100918.09;4993523;28;20045;-45
2022/06/04 10:25:20;;;;;;;4.18;2.05;;;;;;;16.10;57.79;100921.34;5029270;28;20442;-47
2022/06/04 10:38:32;;;;;;;7.25;3.42;;;;;;;16.64;57.06;100911.94;5039775;27;20944;-41
2022/06/04 10:41:10;;;;;;;5.22;3.38;;;;;;;16.56;57.80;100919.88;5005631;28;20050;-43
2022/06/04 10:59:51;;;;;;;6.22;1.88;;;;;;;17.25;57.10;100926.75;5062067;27;20924;-46
2022/06/04 11:02:44;;;;;;;4.93;1.98;;;;;;;17.28;55.71;100920.59;5057756;28;20529;-40
2022/06/04 11:10:52;;;;;;;3.05;1.42;;;;;;;17.28;56.15;100917.97;5011703;28;22106;-41
2022/06/04 11:16:33;;;;;;;4.97;2.60;;;;;;;17.30;54.67;100909.22;5030930;28;20421;-43
2022/06/04 11:19:10;;;;;;;5.75;3.33;;;;;;;17.11;54.69;100920.88;4980692;28;20511;-44
2022/06/04 11:21:43;;;;;;;3.30;2.50;;;;;;;16.99;55.22;100916.69;4984470;28;20050;-48
2022/06/04 11:26:53;;;;;;;5.22;2.13;;;;;;;16.84;56.07;100916.03;5037579;28;20405;-41
2022/06/04 11:29:38;;;;;;;4.00;1.33;;;;;;;16.83;56.58;100919.53;5035117;28;20593;-43
2022/06/04 12:04:32;;;;;;;5.97;2.88;;;;;;;16.23;58.18;100934.28;5089119;27;20391;-40
2022/06/04 16:30:41;;;;;;;4.43;2.40;;;;;;;16.43;57.56;100769.31;5072364;27;20401;-58
2022/06/04 16:43:52;;;;;;;5.18;2.00;;;;;;;16.63;56.72;100747.22;5013658;28;20046;-61
2022/06/04 16:46:24;;;;;;;5.93;2.78;;;;;;;16.48;57.37;100757.03;4998135;28;20038;-59
2022/06/04 16:51:53;;;;;;;5.45;2.15;;;;;;;16.30;57.06;100761.66;5028354;28;20502;-59
2022/06/04 16:54:24;;;;;;;7.13;4.00;;;;;;;16.27;57.66;100758.22;5000580;28;20438;-59
2022/06/04 16:56:51;;;;;;;8.00;2.63;;;;;;;16.17;57.53;100747.91;5002940;28;20054;-53
2022/06/04 16:59:18;;;;;;;6.38;2.80;;;;;;;16.13;57.57;100750.59;5000691;28;20069;-58
2022/06/04 17:02:01;;;;;;;4.63;2.30;;;;;;;15.93;57.57;100762.16;5004247;28;20101;-59
2022/06/04 17:04:38;;;;;;;6.32;2.92;;;;;;;16.03;57.70;100762.94;5001668;28;20505;-59
2022/06/04 17:07:18;;;;;;;5.80;2.63;;;;;;;16.03;58.58;100752.47;5001644;28;20450;-60
2022/06/04 17:15:42;;;;;;;8.30;4.55;;;;;;;16.01;58.67;100736.81;5057014;27;20763;-59
2022/06/04 17:21:14;;;;;;;4.90;2.28;;;;;;;16.01;58.58;100738.59;5052577;27;20886;-59
2022/06/04 17:23:47;;;;;;;5.00;2.45;;;;;;;15.94;58.36;100749.06;5038739;28;20148;-60
2022/06/04 17:37:24;;;;;;;9.32;3.50;;;;;;;15.65;58.69;100732.06;5053133;27;20400;-61
2022/06/04 17:42:31;;;;;;;9.15;4.38;;;;;;;15.75;58.18;100729.31;5037525;28;20422;-57
2022/06/04 17:44:59;;;;;;;9.68;3.55;;;;;;;15.60;58.80;100723.41;5004121;28;20185;-60
2022/06/04 17:47:26;;;;;;;11.02;3.95;;;;;;;15.62;58.60;100721.66;5012182;28;20045;-60
2022/06/04 17:49:53;;;;;;;7.53;3.65;;;;;;;15.54;58.40;100728.72;5006928;28;20564;-62
2022/06/04 17:52:20;;;;;;;8.63;4.35;;;;;;;15.64;58.52;100735.53;5005588;28;20054;-59
2022/06/04 17:54:47;;;;;;;7.57;4.20;;;;;;;15.70;58.64;100745.03;5009604;28;20041;-60
2022/06/04 17:57:19;;;;;;;8.93;3.65;;;;;;;15.74;58.51;100745.88;5032620;28;20054;-58
2022/06/04 17:59:45;;;;;;;5.97;4.38;;;;;;;15.75;58.66;100742.38;5007792;28;20050;-61
2022/06/04 18:02:12;;;;;;;9.43;3.70;;;;;;;15.74;58.54;100743.28;5002491;28;20069;-59
2022/06/04 18:04:39;;;;;;;9.45;3.92;;;;;;;15.70;58.60;100723.31;5003857;28;20046;-61
2022/06/04 18:07:06;;;;;;;7.32;3.67;;;;;;;15.67;58.75;100714.63;5007897;28;20103;-58
2022/06/04 18:09:32;;;;;;;4.95;3.20;;;;;;;15.54;58.56;100713.91;5001423;28;22162;-59
2022/06/04 18:11:59;;;;;;;8.73;3.70;;;;;;;15.41;59.16;100707.97;5001876;28;20097;-61
2022/06/04 18:14:26;;;;;;;7.65;3.55;;;;;;;15.36;59.07;100709.78;5003280;28;20045;-60
2022/06/04 18:16:53;;;;;;;6.13;3.55;;;;;;;15.44;59.24;100714.06;5006708;28;20054;-59
2022/06/04 18:19:19;;;;;;;5.25;3.63;;;;;;;15.52;59.40;100706.97;5011133;28;20057;-61
2022/06/04 18:21:46;;;;;;;8.35;3.58;;;;;;;15.54;59.04;100707.84;5007846;28;20046;-61
2022/06/04 18:24:13;;;;;;;7.95;3.85;;;;;;;15.55;59.13;100704.34;5004662;28;20050;-59
2022/06/04 18:26:41;;;;;;;5.97;3.50;;;;;;;15.50;58.49;100711.38;5002313;28;20057;-58
2022/06/04 18:29:09;;;;;;;7.28;3.58;;;;;;;15.44;58.78;100711.44;5003619;28;20050;-61
2022/06/04 18:31:36;;;;;;;11.05;4.30;;;;;;;15.44;58.94;100707.09;5003972;28;20104;-62
2022/06/04 18:34:03;;;;;;;11.45;4.28;;;;;;;15.42;59.07;100707.09;5002644;28;20046;-61
2022/06/04 18:36:32;;;;;;;8.20;3.78;;;;;;;15.41;58.97;100707.97;5004396;28;20064;-57
2022/06/04 18:38:59;;;;;;;6.72;2.97;;;;;;;15.36;59.25;100694.13;5003345;28;20050;-60
2022/06/04 18:41:26;;;;;;;7.65;3.95;;;;;;;15.27;59.24;100709.91;5001881;28;20717;-59
2022/06/04 18:55:00;;;;;;;6.07;3.58;;;;;;;14.79;59.14;100724.28;4985488;28;20042;-49
2022/06/04 18:57:28;;;;;;;7.25;3.22;;;;;;;14.74;59.94;100721.72;4990445;28;20050;-47
2022/06/04 18:59:54;;;;;;;5.75;3.40;;;;;;;14.72;59.01;100728.69;5000648;28;20054;-48
2022/06/04 19:02:22;;;;;;;6.60;3.58;;;;;;;14.71;59.51;100726.06;4988341;28;20057;-43
2022/06/04 19:04:48;;;;;;;4.68;3.60;;;;;;;14.62;59.13;100722.69;4999580;28;20058;-49
2022/06/04 19:15:55;;;;;;;8.25;4.57;;;;;;;14.49;59.59;100726.28;4971019;28;20058;-45
2022/06/04 19:18:21;;;;;;;6.03;4.05;;;;;;;14.48;60.51;100728.00;4987532;28;20058;-48
2022/06/04 19:26:21;;;;;;;7.43;3.95;;;;;;;14.31;60.13;100743.78;4985469;28;20069;-46
2022/06/04 19:28:48;;;;;;;7.55;3.92;;;;;;;14.29;60.06;100750.75;4987119;28;20046;-48
2022/06/04 19:31:15;;;;;;;7.03;4.25;;;;;;;14.21;60.77;100747.31;4986011;28;20569;-47
2022/06/04 19:33:42;;;;;;;5.43;3.35;;;;;;;14.12;60.76;100749.09;4990195;28;20038;-46
2022/06/04 19:36:08;;;;;;;6.72;4.10;;;;;;;14.11;60.81;100757.81;4987057;28;20077;-51
2022/06/04 19:38:36;;;;;;;7.53;4.10;;;;;;;14.12;60.66;100772.53;4989412;28;20514;-46
2022/06/04 19:41:07;;;;;;;7.40;3.70;;;;;;;14.13;60.86;100776.03;4986506;28;20121;-45
2022/06/04 19:43:34;;;;;;;5.78;3.95;;;;;;;14.10;60.73;100787.34;4989282;28;20045;-45
2022/06/04 19:46:02;;;;;;;7.50;3.67;;;;;;;14.11;60.85;100783.84;4983626;28;20053;-47
2022/06/04 19:48:30;;;;;;;6.72;3.45;;;;;;;14.06;60.75;100785.63;4998205;28;20061;-46
2022/06/04 19:50:58;;;;;;;10.25;4.45;;;;;;;14.04;61.15;100770.84;4988913;28;20104;-48
2022/06/04 19:56:13;;;;;;;8.18;3.65;;;;;;;14.02;61.46;100773.50;4997755;28;20077;-49